sensor_id;sensor_type;location;lat;lon;timestamp;P1;durP1;ratioP1;P2;durP2;ratioP2
64339;SDS011;63709;53.258;-8.814;2023-04-15T00:00:11;14.45;;;4.43;;
64339;SDS011;63709;53.258;-8.814;2023-04-15T00:02:37;13.27;;;4.82;;
64339;SDS011;63709;53.258;-8.814;2023-04-15T00:05:08;12.77;;;4.07;;
64339;SDS011;63709;53.258;-8.814;2023-04-15T00:07:34;18.38;;;5.30;;
64339;SDS011;63709;53.258;-8.814;2023-04-15T00:10:01;14.70;;;5.30;;
64339;SDS011;63709;53.258;-8.814;2023-04-15T00:12:28;18.95;;;5.60;;
64339;SDS011;63709;53.258;-8.814;2023-04-15T00:14:54;14.27;;;5.07;;
64339;SDS011;63709;53.258;-8.814;2023-04-15T00:17:21;18.20;;;5.65;;
64339;SDS011;63709;53.258;-8.814;2023-04-15T00:19:46;17.98;;;6.65;;
64339;SDS011;63709;53.258;-8.814;2023-04-15T00:22:12;19.20;;;7.55;;
64339;SDS011;63709;53.258;-8.814;2023-04-15T00:24:38;21.92;;;7.90;;
64339;SDS011;63709;53.258;-8.814;2023-04-15T00:27:04;23.83;;;8.18;;
64339;SDS011;63709;53.258;-8.814;2023-04-15T00:29:30;20.35;;;9.38;;
64339;SDS011;63709;53.258;-8.814;2023-04-15T00:31:55;16.45;;;7.75;;
64339;SDS011;63709;53.258;-8.814;2023-04-15T00:34:24;16.55;;;6.63;;
64339;SDS011;63709;53.258;-8.814;2023-04-15T00:36:52;17.55;;;5.95;;
64339;SDS011;63709;53.258;-8.814;2023-04-15T00:39:17;18.55;;;6.38;;
64339;SDS011;63709;53.258;-8.814;2023-04-15T00:41:44;13.95;;;6.03;;
64339;SDS011;63709;53.258;-8.814;2023-04-15T00:44:10;18.40;;;5.40;;
64339;SDS011;63709;53.258;-8.814;2023-04-15T00:46:36;17.40;;;5.35;;
64339;SDS011;63709;53.258;-8.814;2023-04-15T00:49:03;14.10;;;4.00;;
64339;SDS011;63709;53.258;-8.814;2023-04-15T00:51:30;13.48;;;5.07;;
64339;SDS011;63709;53.258;-8.814;2023-04-15T00:53:59;11.32;;;3.88;;
64339;SDS011;63709;53.258;-8.814;2023-04-15T00:56:26;10.75;;;4.00;;
64339;SDS011;63709;53.258;-8.814;2023-04-15T00:58:53;9.00;;;3.92;;
64339;SDS011;63709;53.258;-8.814;2023-04-15T01:01:22;9.38;;;3.80;;
64339;SDS011;63709;53.258;-8.814;2023-04-15T01:03:50;12.43;;;4.50;;
64339;SDS011;63709;53.258;-8.814;2023-04-15T01:06:17;12.35;;;3.92;;
64339;SDS011;63709;53.258;-8.814;2023-04-15T01:08:43;11.18;;;5.10;;
64339;SDS011;63709;53.258;-8.814;2023-04-15T01:11:12;16.50;;;5.07;;
64339;SDS011;63709;53.258;-8.814;2023-04-15T01:13:38;11.57;;;5.28;;
64339;SDS011;63709;53.258;-8.814;2023-04-15T01:16:04;14.90;;;5.72;;
64339;SDS011;63709;53.258;-8.814;2023-04-15T01:18:30;12.93;;;5.50;;
64339;SDS011;63709;53.258;-8.814;2023-04-15T01:20:56;15.25;;;5.28;;
64339;SDS011;63709;53.258;-8.814;2023-04-15T01:23:22;18.05;;;5.80;;
64339;SDS011;63709;53.258;-8.814;2023-04-15T01:25:48;13.32;;;4.63;;
64339;SDS011;63709;53.258;-8.814;2023-04-15T01:28:15;12.07;;;4.55;;
64339;SDS011;63709;53.258;-8.814;2023-04-15T01:30:41;14.18;;;4.68;;
64339;SDS011;63709;53.258;-8.814;2023-04-15T01:35:33;12.15;;;4.25;;
64339;SDS011;63709;53.258;-8.814;2023-04-15T01:38:05;14.63;;;4.38;;
64339;SDS011;63709;53.258;-8.814;2023-04-15T01:40:34;13.00;;;5.57;;
64339;SDS011;63709;53.258;-8.814;2023-04-15T01:43:01;11.00;;;4.45;;
64339;SDS011;63709;53.258;-8.814;2023-04-15T01:45:27;19.10;;;5.88;;
64339;SDS011;63709;53.258;-8.814;2023-04-15T01:47:53;15.73;;;5.03;;
64339;SDS011;63709;53.258;-8.814;2023-04-15T01:50:19;22.08;;;5.60;;
64339;SDS011;63709;53.258;-8.814;2023-04-15T01:52:46;18.13;;;6.05;;
64339;SDS011;63709;53.258;-8.814;2023-04-15T01:55:13;16.17;;;5.55;;
64339;SDS011;63709;53.258;-8.814;2023-04-15T01:57:41;16.48;;;5.55;;
64339;SDS011;63709;53.258;-8.814;2023-04-15T02:00:07;21.02;;;6.75;;
64339;SDS011;63709;53.258;-8.814;2023-04-15T02:02:33;18.02;;;5.50;;
64339;SDS011;63709;53.258;-8.814;2023-04-15T02:05:00;19.65;;;5.18;;
64339;SDS011;63709;53.258;-8.814;2023-04-15T02:07:25;14.52;;;3.97;;
64339;SDS011;63709;53.258;-8.814;2023-04-15T02:09:54;14.48;;;4.47;;
64339;SDS011;63709;53.258;-8.814;2023-04-15T02:12:20;10.52;;;3.95;;
64339;SDS011;63709;53.258;-8.814;2023-04-15T02:14:46;14.43;;;4.25;;
64339;SDS011;63709;53.258;-8.814;2023-04-15T02:17:12;21.85;;;5.55;;
64339;SDS011;63709;53.258;-8.814;2023-04-15T02:19:39;20.10;;;5.40;;
64339;SDS011;63709;53.258;-8.814;2023-04-15T02:22:06;14.68;;;4.70;;
64339;SDS011;63709;53.258;-8.814;2023-04-15T02:24:33;21.45;;;5.10;;
64339;SDS011;63709;53.258;-8.814;2023-04-15T02:27:00;10.27;;;3.67;;
64339;SDS011;63709;53.258;-8.814;2023-04-15T02:29:27;14.20;;;4.07;;
64339;SDS011;63709;53.258;-8.814;2023-04-15T02:31:52;18.50;;;4.32;;
64339;SDS011;63709;53.258;-8.814;2023-04-15T02:34:18;16.92;;;4.75;;
64339;SDS011;63709;53.258;-8.814;2023-04-15T02:36:44;12.70;;;4.43;;
64339;SDS011;63709;53.258;-8.814;2023-04-15T02:39:12;15.75;;;4.75;;
64339;SDS011;63709;53.258;-8.814;2023-04-15T02:41:42;20.75;;;4.78;;
64339;SDS011;63709;53.258;-8.814;2023-04-15T02:44:08;17.98;;;4.85;;
64339;SDS011;63709;53.258;-8.814;2023-04-15T02:46:35;19.15;;;5.18;;
64339;SDS011;63709;53.258;-8.814;2023-04-15T02:49:05;17.02;;;5.47;;
64339;SDS011;63709;53.258;-8.814;2023-04-15T02:51:31;17.33;;;5.38;;
64339;SDS011;63709;53.258;-8.814;2023-04-15T02:53:56;13.93;;;4.70;;
64339;SDS011;63709;53.258;-8.814;2023-04-15T02:56:23;14.80;;;4.60;;
64339;SDS011;63709;53.258;-8.814;2023-04-15T02:58:49;19.33;;;5.18;;
64339;SDS011;63709;53.258;-8.814;2023-04-15T03:01:15;19.92;;;4.80;;
64339;SDS011;63709;53.258;-8.814;2023-04-15T03:03:41;15.98;;;5.22;;
64339;SDS011;63709;53.258;-8.814;2023-04-15T03:06:06;18.63;;;5.95;;
64339;SDS011;63709;53.258;-8.814;2023-04-15T03:08:33;15.70;;;4.85;;
64339;SDS011;63709;53.258;-8.814;2023-04-15T03:10:58;20.85;;;4.60;;
64339;SDS011;63709;53.258;-8.814;2023-04-15T03:13:26;23.33;;;5.15;;
64339;SDS011;63709;53.258;-8.814;2023-04-15T03:15:53;20.50;;;4.97;;
64339;SDS011;63709;53.258;-8.814;2023-04-15T03:18:20;21.02;;;5.53;;
64339;SDS011;63709;53.258;-8.814;2023-04-15T03:23:12;20.13;;;5.20;;
64339;SDS011;63709;53.258;-8.814;2023-04-15T03:25:37;15.25;;;5.13;;
64339;SDS011;63709;53.258;-8.814;2023-04-15T03:28:03;15.63;;;4.70;;
64339;SDS011;63709;53.258;-8.814;2023-04-15T03:30:29;14.00;;;4.55;;
64339;SDS011;63709;53.258;-8.814;2023-04-15T03:32:55;14.05;;;3.83;;
64339;SDS011;63709;53.258;-8.814;2023-04-15T03:35:22;10.00;;;3.92;;
64339;SDS011;63709;53.258;-8.814;2023-04-15T03:37:47;10.55;;;4.47;;
64339;SDS011;63709;53.258;-8.814;2023-04-15T03:40:14;12.98;;;3.88;;
64339;SDS011;63709;53.258;-8.814;2023-04-15T03:42:39;13.55;;;4.10;;
64339;SDS011;63709;53.258;-8.814;2023-04-15T03:45:05;14.95;;;3.70;;
64339;SDS011;63709;53.258;-8.814;2023-04-15T03:49:57;19.30;;;4.05;;
64339;SDS011;63709;53.258;-8.814;2023-04-15T03:52:24;15.45;;;4.40;;
64339;SDS011;63709;53.258;-8.814;2023-04-15T03:54:49;13.70;;;4.13;;
64339;SDS011;63709;53.258;-8.814;2023-04-15T03:57:15;11.73;;;4.10;;
64339;SDS011;63709;53.258;-8.814;2023-04-15T03:59:42;13.68;;;3.88;;
64339;SDS011;63709;53.258;-8.814;2023-04-15T04:02:08;18.55;;;4.05;;
64339;SDS011;63709;53.258;-8.814;2023-04-15T04:04:33;17.42;;;4.60;;
64339;SDS011;63709;53.258;-8.814;2023-04-15T04:06:59;12.30;;;4.68;;
64339;SDS011;63709;53.258;-8.814;2023-04-15T04:09:25;17.35;;;5.88;;
64339;SDS011;63709;53.258;-8.814;2023-04-15T04:11:53;11.55;;;4.05;;
64339;SDS011;63709;53.258;-8.814;2023-04-15T04:14:18;10.63;;;4.30;;
64339;SDS011;63709;53.258;-8.814;2023-04-15T04:16:44;17.25;;;4.65;;
64339;SDS011;63709;53.258;-8.814;2023-04-15T04:21:37;11.20;;;3.65;;
64339;SDS011;63709;53.258;-8.814;2023-04-15T04:24:05;9.95;;;3.58;;
64339;SDS011;63709;53.258;-8.814;2023-04-15T04:26:30;14.30;;;4.03;;
64339;SDS011;63709;53.258;-8.814;2023-04-15T04:28:55;11.48;;;3.65;;
64339;SDS011;63709;53.258;-8.814;2023-04-15T04:31:21;17.38;;;3.95;;
64339;SDS011;63709;53.258;-8.814;2023-04-15T04:33:48;17.05;;;4.10;;
64339;SDS011;63709;53.258;-8.814;2023-04-15T04:36:15;15.05;;;4.00;;
64339;SDS011;63709;53.258;-8.814;2023-04-15T04:38:41;9.63;;;3.97;;
64339;SDS011;63709;53.258;-8.814;2023-04-15T04:41:06;10.77;;;4.45;;
64339;SDS011;63709;53.258;-8.814;2023-04-15T04:43:32;14.50;;;4.25;;
64339;SDS011;63709;53.258;-8.814;2023-04-15T04:46:04;15.83;;;3.73;;
64339;SDS011;63709;53.258;-8.814;2023-04-15T04:48:30;11.93;;;4.32;;
64339;SDS011;63709;53.258;-8.814;2023-04-15T04:50:55;17.55;;;4.50;;
64339;SDS011;63709;53.258;-8.814;2023-04-15T04:53:21;14.70;;;4.55;;
64339;SDS011;63709;53.258;-8.814;2023-04-15T04:55:47;18.70;;;4.10;;
64339;SDS011;63709;53.258;-8.814;2023-04-15T04:58:18;18.70;;;4.22;;
64339;SDS011;63709;53.258;-8.814;2023-04-15T05:00:44;17.30;;;4.45;;
64339;SDS011;63709;53.258;-8.814;2023-04-15T05:03:11;10.25;;;3.83;;
64339;SDS011;63709;53.258;-8.814;2023-04-15T05:05:36;11.27;;;4.05;;
64339;SDS011;63709;53.258;-8.814;2023-04-15T05:08:05;11.43;;;3.80;;
64339;SDS011;63709;53.258;-8.814;2023-04-15T05:10:31;13.10;;;3.97;;
64339;SDS011;63709;53.258;-8.814;2023-04-15T05:12:57;12.60;;;4.00;;
64339;SDS011;63709;53.258;-8.814;2023-04-15T05:15:23;14.85;;;4.20;;
64339;SDS011;63709;53.258;-8.814;2023-04-15T05:17:51;12.38;;;4.25;;
64339;SDS011;63709;53.258;-8.814;2023-04-15T05:20:16;14.80;;;4.82;;
64339;SDS011;63709;53.258;-8.814;2023-04-15T05:22:42;14.15;;;4.13;;
64339;SDS011;63709;53.258;-8.814;2023-04-15T05:25:08;12.40;;;3.60;;
64339;SDS011;63709;53.258;-8.814;2023-04-15T05:27:34;13.30;;;4.03;;
64339;SDS011;63709;53.258;-8.814;2023-04-15T05:30:00;11.43;;;4.05;;
64339;SDS011;63709;53.258;-8.814;2023-04-15T05:32:26;18.17;;;4.45;;
64339;SDS011;63709;53.258;-8.814;2023-04-15T05:34:52;16.98;;;4.30;;
64339;SDS011;63709;53.258;-8.814;2023-04-15T05:37:17;18.90;;;4.57;;
64339;SDS011;63709;53.258;-8.814;2023-04-15T05:39:45;12.45;;;4.63;;
64339;SDS011;63709;53.258;-8.814;2023-04-15T05:42:11;8.73;;;3.88;;
64339;SDS011;63709;53.258;-8.814;2023-04-15T05:44:36;12.90;;;4.22;;
64339;SDS011;63709;53.258;-8.814;2023-04-15T05:47:02;15.52;;;4.28;;
64339;SDS011;63709;53.258;-8.814;2023-04-15T05:49:28;20.77;;;5.05;;
64339;SDS011;63709;53.258;-8.814;2023-04-15T05:51:54;18.50;;;4.88;;
64339;SDS011;63709;53.258;-8.814;2023-04-15T05:54:20;11.20;;;3.85;;
64339;SDS011;63709;53.258;-8.814;2023-04-15T05:56:46;18.67;;;4.15;;
64339;SDS011;63709;53.258;-8.814;2023-04-15T05:59:12;10.45;;;4.60;;
64339;SDS011;63709;53.258;-8.814;2023-04-15T06:01:37;18.20;;;4.10;;
64339;SDS011;63709;53.258;-8.814;2023-04-15T06:04:02;17.45;;;4.30;;
64339;SDS011;63709;53.258;-8.814;2023-04-15T06:06:28;16.35;;;4.10;;
64339;SDS011;63709;53.258;-8.814;2023-04-15T06:08:54;17.73;;;4.70;;
64339;SDS011;63709;53.258;-8.814;2023-04-15T06:11:20;17.42;;;4.50;;
64339;SDS011;63709;53.258;-8.814;2023-04-15T06:13:46;13.77;;;4.35;;
64339;SDS011;63709;53.258;-8.814;2023-04-15T06:16:12;11.40;;;3.80;;
64339;SDS011;63709;53.258;-8.814;2023-04-15T06:18:38;16.48;;;3.40;;
64339;SDS011;63709;53.258;-8.814;2023-04-15T06:21:04;7.93;;;3.72;;
64339;SDS011;63709;53.258;-8.814;2023-04-15T06:23:30;17.80;;;3.72;;
64339;SDS011;63709;53.258;-8.814;2023-04-15T06:25:58;9.88;;;2.88;;
64339;SDS011;63709;53.258;-8.814;2023-04-15T06:28:23;7.13;;;3.20;;
64339;SDS011;63709;53.258;-8.814;2023-04-15T06:30:49;13.68;;;3.17;;
64339;SDS011;63709;53.258;-8.814;2023-04-15T06:33:15;7.70;;;2.88;;
64339;SDS011;63709;53.258;-8.814;2023-04-15T06:35:41;11.15;;;3.30;;
64339;SDS011;63709;53.258;-8.814;2023-04-15T06:38:06;11.70;;;3.50;;
64339;SDS011;63709;53.258;-8.814;2023-04-15T06:40:31;10.35;;;3.03;;
64339;SDS011;63709;53.258;-8.814;2023-04-15T06:42:57;14.43;;;3.58;;
64339;SDS011;63709;53.258;-8.814;2023-04-15T06:45:23;15.88;;;3.40;;
64339;SDS011;63709;53.258;-8.814;2023-04-15T06:47:50;12.45;;;3.40;;
64339;SDS011;63709;53.258;-8.814;2023-04-15T06:50:16;8.60;;;2.95;;
64339;SDS011;63709;53.258;-8.814;2023-04-15T06:52:42;11.27;;;2.97;;
64339;SDS011;63709;53.258;-8.814;2023-04-15T06:55:07;13.93;;;2.70;;
64339;SDS011;63709;53.258;-8.814;2023-04-15T06:57:34;8.32;;;2.75;;
64339;SDS011;63709;53.258;-8.814;2023-04-15T07:00:00;16.75;;;2.95;;
64339;SDS011;63709;53.258;-8.814;2023-04-15T07:02:25;10.25;;;2.38;;
64339;SDS011;63709;53.258;-8.814;2023-04-15T07:04:51;16.95;;;3.08;;
64339;SDS011;63709;53.258;-8.814;2023-04-15T07:07:17;9.18;;;2.35;;
64339;SDS011;63709;53.258;-8.814;2023-04-15T07:09:43;7.40;;;2.90;;
64339;SDS011;63709;53.258;-8.814;2023-04-15T07:12:09;10.77;;;3.08;;
64339;SDS011;63709;53.258;-8.814;2023-04-15T07:14:34;7.97;;;2.50;;
64339;SDS011;63709;53.258;-8.814;2023-04-15T07:17:01;15.60;;;2.88;;
64339;SDS011;63709;53.258;-8.814;2023-04-15T07:19:27;15.20;;;2.90;;
64339;SDS011;63709;53.258;-8.814;2023-04-15T07:21:54;14.00;;;2.80;;
64339;SDS011;63709;53.258;-8.814;2023-04-15T07:24:20;8.90;;;2.45;;
64339;SDS011;63709;53.258;-8.814;2023-04-15T07:26:47;5.97;;;2.40;;
64339;SDS011;63709;53.258;-8.814;2023-04-15T07:29:20;12.13;;;2.67;;
64339;SDS011;63709;53.258;-8.814;2023-04-15T07:31:45;13.23;;;3.17;;
64339;SDS011;63709;53.258;-8.814;2023-04-15T07:34:12;8.07;;;2.28;;
64339;SDS011;63709;53.258;-8.814;2023-04-15T07:36:37;12.07;;;2.65;;
64339;SDS011;63709;53.258;-8.814;2023-04-15T07:39:04;12.50;;;2.25;;
64339;SDS011;63709;53.258;-8.814;2023-04-15T07:41:30;16.33;;;2.40;;
64339;SDS011;63709;53.258;-8.814;2023-04-15T07:43:56;8.65;;;2.13;;
64339;SDS011;63709;53.258;-8.814;2023-04-15T07:46:23;12.98;;;2.53;;
64339;SDS011;63709;53.258;-8.814;2023-04-15T07:48:51;9.25;;;2.22;;
64339;SDS011;63709;53.258;-8.814;2023-04-15T07:51:18;10.68;;;2.25;;
64339;SDS011;63709;53.258;-8.814;2023-04-15T07:53:46;13.38;;;2.53;;
64339;SDS011;63709;53.258;-8.814;2023-04-15T07:56:14;12.55;;;2.60;;
64339;SDS011;63709;53.258;-8.814;2023-04-15T07:58:40;12.70;;;2.40;;
64339;SDS011;63709;53.258;-8.814;2023-04-15T08:01:07;17.40;;;3.53;;
64339;SDS011;63709;53.258;-8.814;2023-04-15T08:03:32;14.85;;;2.72;;
64339;SDS011;63709;53.258;-8.814;2023-04-15T08:05:58;9.40;;;2.50;;
64339;SDS011;63709;53.258;-8.814;2023-04-15T08:08:24;14.18;;;2.65;;
64339;SDS011;63709;53.258;-8.814;2023-04-15T08:10:50;13.68;;;3.00;;
64339;SDS011;63709;53.258;-8.814;2023-04-15T08:13:16;13.35;;;2.67;;
64339;SDS011;63709;53.258;-8.814;2023-04-15T08:15:42;11.02;;;2.25;;
64339;SDS011;63709;53.258;-8.814;2023-04-15T08:18:09;16.67;;;2.20;;
64339;SDS011;63709;53.258;-8.814;2023-04-15T08:20:35;9.73;;;2.60;;
64339;SDS011;63709;53.258;-8.814;2023-04-15T08:23:02;10.48;;;3.08;;
64339;SDS011;63709;53.258;-8.814;2023-04-15T08:25:29;17.83;;;2.53;;
64339;SDS011;63709;53.258;-8.814;2023-04-15T08:27:56;12.80;;;2.08;;
64339;SDS011;63709;53.258;-8.814;2023-04-15T08:30:23;19.05;;;2.50;;
64339;SDS011;63709;53.258;-8.814;2023-04-15T08:32:49;15.63;;;2.40;;
64339;SDS011;63709;53.258;-8.814;2023-04-15T08:35:16;10.27;;;2.08;;
64339;SDS011;63709;53.258;-8.814;2023-04-15T08:37:43;11.27;;;2.22;;
64339;SDS011;63709;53.258;-8.814;2023-04-15T08:40:09;13.18;;;2.20;;
64339;SDS011;63709;53.258;-8.814;2023-04-15T08:42:43;15.45;;;2.13;;
64339;SDS011;63709;53.258;-8.814;2023-04-15T08:45:12;10.35;;;2.03;;
64339;SDS011;63709;53.258;-8.814;2023-04-15T08:47:39;14.30;;;2.15;;
64339;SDS011;63709;53.258;-8.814;2023-04-15T08:50:05;10.00;;;2.22;;
64339;SDS011;63709;53.258;-8.814;2023-04-15T08:52:33;9.50;;;2.08;;
64339;SDS011;63709;53.258;-8.814;2023-04-15T08:54:59;8.05;;;1.80;;
64339;SDS011;63709;53.258;-8.814;2023-04-15T08:57:27;11.48;;;2.17;;
64339;SDS011;63709;53.258;-8.814;2023-04-15T08:59:56;16.92;;;2.85;;
64339;SDS011;63709;53.258;-8.814;2023-04-15T09:02:25;21.33;;;2.13;;
64339;SDS011;63709;53.258;-8.814;2023-04-15T09:04:53;6.47;;;1.75;;
64339;SDS011;63709;53.258;-8.814;2023-04-15T09:07:19;6.10;;;1.55;;
64339;SDS011;63709;53.258;-8.814;2023-04-15T09:09:44;11.65;;;2.50;;
64339;SDS011;63709;53.258;-8.814;2023-04-15T09:12:10;11.65;;;1.85;;
64339;SDS011;63709;53.258;-8.814;2023-04-15T09:14:39;9.55;;;1.67;;
64339;SDS011;63709;53.258;-8.814;2023-04-15T09:17:04;9.52;;;1.85;;
64339;SDS011;63709;53.258;-8.814;2023-04-15T09:19:34;15.68;;;2.60;;
64339;SDS011;63709;53.258;-8.814;2023-04-15T09:22:00;9.38;;;1.70;;
64339;SDS011;63709;53.258;-8.814;2023-04-15T09:24:32;11.23;;;1.85;;
64339;SDS011;63709;53.258;-8.814;2023-04-15T09:27:02;9.55;;;1.35;;
64339;SDS011;63709;53.258;-8.814;2023-04-15T09:32:08;6.40;;;1.38;;
64339;SDS011;63709;53.258;-8.814;2023-04-15T09:34:37;7.93;;;1.50;;
64339;SDS011;63709;53.258;-8.814;2023-04-15T09:39:45;4.53;;;0.88;;
64339;SDS011;63709;53.258;-8.814;2023-04-15T09:42:11;8.10;;;1.73;;
64339;SDS011;63709;53.258;-8.814;2023-04-15T09:44:36;6.47;;;1.67;;
64339;SDS011;63709;53.258;-8.814;2023-04-15T09:47:02;6.38;;;1.30;;
64339;SDS011;63709;53.258;-8.814;2023-04-15T09:49:28;12.55;;;2.03;;
64339;SDS011;63709;53.258;-8.814;2023-04-15T09:51:57;9.15;;;1.67;;
64339;SDS011;63709;53.258;-8.814;2023-04-15T09:54:32;5.13;;;1.27;;
64339;SDS011;63709;53.258;-8.814;2023-04-15T09:57:09;6.70;;;1.15;;
64339;SDS011;63709;53.258;-8.814;2023-04-15T09:59:36;5.00;;;1.00;;
64339;SDS011;63709;53.258;-8.814;2023-04-15T10:02:05;9.82;;;1.65;;
64339;SDS011;63709;53.258;-8.814;2023-04-15T10:04:34;8.88;;;2.63;;
64339;SDS011;63709;53.258;-8.814;2023-04-15T10:07:04;12.98;;;1.48;;
64339;SDS011;63709;53.258;-8.814;2023-04-15T10:09:32;8.50;;;1.70;;
64339;SDS011;63709;53.258;-8.814;2023-04-15T10:12:00;5.65;;;1.10;;
64339;SDS011;63709;53.258;-8.814;2023-04-15T10:14:30;6.40;;;0.90;;
64339;SDS011;63709;53.258;-8.814;2023-04-15T10:16:59;3.70;;;1.38;;
64339;SDS011;63709;53.258;-8.814;2023-04-15T10:19:27;8.10;;;1.20;;
64339;SDS011;63709;53.258;-8.814;2023-04-15T10:21:57;3.47;;;1.00;;
64339;SDS011;63709;53.258;-8.814;2023-04-15T10:24:24;7.85;;;1.30;;
64339;SDS011;63709;53.258;-8.814;2023-04-15T10:26:51;5.22;;;1.00;;
64339;SDS011;63709;53.258;-8.814;2023-04-15T10:29:18;6.00;;;1.30;;
64339;SDS011;63709;53.258;-8.814;2023-04-15T10:36:40;9.85;;;1.65;;
64339;SDS011;63709;53.258;-8.814;2023-04-15T10:40:06;6.20;;;1.20;;
64339;SDS011;63709;53.258;-8.814;2023-04-15T10:42:05;7.95;;;1.30;;
64339;SDS011;63709;53.258;-8.814;2023-04-15T10:44:35;4.95;;;1.17;;
64339;SDS011;63709;53.258;-8.814;2023-04-15T10:47:05;7.57;;;1.48;;
64339;SDS011;63709;53.258;-8.814;2023-04-15T10:49:47;6.82;;;1.80;;
64339;SDS011;63709;53.258;-8.814;2023-04-15T10:52:25;4.95;;;0.90;;
64339;SDS011;63709;53.258;-8.814;2023-04-15T10:55:34;8.23;;;1.48;;
64339;SDS011;63709;53.258;-8.814;2023-04-15T10:57:59;3.92;;;1.25;;
64339;SDS011;63709;53.258;-8.814;2023-04-15T11:00:27;7.95;;;1.58;;
64339;SDS011;63709;53.258;-8.814;2023-04-15T11:03:06;7.15;;;1.50;;
64339;SDS011;63709;53.258;-8.814;2023-04-15T11:08:10;9.25;;;1.58;;
64339;SDS011;63709;53.258;-8.814;2023-04-15T11:13:04;5.13;;;1.00;;
64339;SDS011;63709;53.258;-8.814;2023-04-15T11:15:40;6.07;;;1.27;;
64339;SDS011;63709;53.258;-8.814;2023-04-15T11:18:10;4.90;;;1.30;;
64339;SDS011;63709;53.258;-8.814;2023-04-15T11:20:39;4.78;;;1.10;;
64339;SDS011;63709;53.258;-8.814;2023-04-15T11:23:08;9.50;;;1.58;;
64339;SDS011;63709;53.258;-8.814;2023-04-15T11:25:34;5.63;;;1.33;;
64339;SDS011;63709;53.258;-8.814;2023-04-15T11:28:03;6.88;;;1.80;;
64339;SDS011;63709;53.258;-8.814;2023-04-15T11:30:30;6.78;;;1.23;;
64339;SDS011;63709;53.258;-8.814;2023-04-15T11:33:00;4.95;;;1.10;;
64339;SDS011;63709;53.258;-8.814;2023-04-15T11:35:28;5.22;;;1.10;;
64339;SDS011;63709;53.258;-8.814;2023-04-15T11:37:55;6.13;;;1.02;;
64339;SDS011;63709;53.258;-8.814;2023-04-15T11:40:22;3.78;;;0.95;;
64339;SDS011;63709;53.258;-8.814;2023-04-15T11:43:08;4.60;;;1.13;;
64339;SDS011;63709;53.258;-8.814;2023-04-15T11:46:00;2.28;;;0.90;;
64339;SDS011;63709;53.258;-8.814;2023-04-15T11:48:26;3.72;;;1.00;;
64339;SDS011;63709;53.258;-8.814;2023-04-15T11:50:52;4.65;;;1.10;;
64339;SDS011;63709;53.258;-8.814;2023-04-15T11:53:34;4.20;;;1.10;;
64339;SDS011;63709;53.258;-8.814;2023-04-15T11:56:04;2.72;;;1.08;;
64339;SDS011;63709;53.258;-8.814;2023-04-15T11:58:30;4.25;;;1.10;;
64339;SDS011;63709;53.258;-8.814;2023-04-15T12:00:58;3.35;;;1.10;;
64339;SDS011;63709;53.258;-8.814;2023-04-15T12:08:48;5.78;;;1.40;;
64339;SDS011;63709;53.258;-8.814;2023-04-15T12:11:42;4.68;;;1.45;;
64339;SDS011;63709;53.258;-8.814;2023-04-15T12:14:12;5.95;;;1.83;;
64339;SDS011;63709;53.258;-8.814;2023-04-15T12:16:45;3.47;;;1.10;;
64339;SDS011;63709;53.258;-8.814;2023-04-15T12:19:16;5.70;;;1.27;;
64339;SDS011;63709;53.258;-8.814;2023-04-15T12:21:47;5.68;;;1.30;;
64339;SDS011;63709;53.258;-8.814;2023-04-15T12:24:13;9.30;;;1.58;;
64339;SDS011;63709;53.258;-8.814;2023-04-15T12:26:47;3.10;;;1.00;;
64339;SDS011;63709;53.258;-8.814;2023-04-15T12:29:17;5.82;;;1.30;;
64339;SDS011;63709;53.258;-8.814;2023-04-15T12:31:48;9.05;;;1.30;;
64339;SDS011;63709;53.258;-8.814;2023-04-15T12:34:24;4.82;;;1.30;;
64339;SDS011;63709;53.258;-8.814;2023-04-15T12:36:56;7.47;;;1.65;;
64339;SDS011;63709;53.258;-8.814;2023-04-15T12:39:26;6.07;;;1.30;;
64339;SDS011;63709;53.258;-8.814;2023-04-15T12:41:53;10.55;;;2.17;;
64339;SDS011;63709;53.258;-8.814;2023-04-15T12:46:46;3.30;;;1.10;;
64339;SDS011;63709;53.258;-8.814;2023-04-15T12:49:13;4.50;;;1.10;;
64339;SDS011;63709;53.258;-8.814;2023-04-15T12:51:40;10.40;;;1.33;;
64339;SDS011;63709;53.258;-8.814;2023-04-15T12:56:31;5.25;;;1.23;;
64339;SDS011;63709;53.258;-8.814;2023-04-15T12:58:57;3.30;;;0.95;;
64339;SDS011;63709;53.258;-8.814;2023-04-15T13:01:22;4.57;;;1.10;;
64339;SDS011;63709;53.258;-8.814;2023-04-15T13:03:47;6.05;;;1.50;;
64339;SDS011;63709;53.258;-8.814;2023-04-15T13:06:15;5.40;;;1.23;;
64339;SDS011;63709;53.258;-8.814;2023-04-15T13:08:40;4.05;;;1.20;;
64339;SDS011;63709;53.258;-8.814;2023-04-15T13:11:06;2.75;;;1.10;;
64339;SDS011;63709;53.258;-8.814;2023-04-15T13:13:32;4.32;;;0.95;;
64339;SDS011;63709;53.258;-8.814;2023-04-15T13:15:59;2.92;;;0.90;;
64339;SDS011;63709;53.258;-8.814;2023-04-15T13:18:25;2.35;;;0.70;;
64339;SDS011;63709;53.258;-8.814;2023-04-15T13:20:51;4.72;;;0.93;;
64339;SDS011;63709;53.258;-8.814;2023-04-15T13:23:18;4.53;;;1.00;;
64339;SDS011;63709;53.258;-8.814;2023-04-15T13:25:48;1.95;;;0.70;;
64339;SDS011;63709;53.258;-8.814;2023-04-15T13:28:14;5.50;;;0.98;;
64339;SDS011;63709;53.258;-8.814;2023-04-15T13:30:42;4.03;;;0.90;;
64339;SDS011;63709;53.258;-8.814;2023-04-15T13:33:08;5.78;;;0.90;;
64339;SDS011;63709;53.258;-8.814;2023-04-15T13:35:34;3.53;;;1.08;;
64339;SDS011;63709;53.258;-8.814;2023-04-15T13:38:00;3.15;;;1.48;;
64339;SDS011;63709;53.258;-8.814;2023-04-15T13:40:26;4.35;;;0.90;;
64339;SDS011;63709;53.258;-8.814;2023-04-15T13:42:52;3.38;;;0.82;;
64339;SDS011;63709;53.258;-8.814;2023-04-15T13:45:18;3.60;;;0.80;;
64339;SDS011;63709;53.258;-8.814;2023-04-15T13:47:43;3.95;;;1.05;;
64339;SDS011;63709;53.258;-8.814;2023-04-15T13:50:09;5.00;;;1.02;;
64339;SDS011;63709;53.258;-8.814;2023-04-15T13:52:35;3.13;;;0.90;;
64339;SDS011;63709;53.258;-8.814;2023-04-15T13:55:04;2.97;;;1.00;;
64339;SDS011;63709;53.258;-8.814;2023-04-15T13:57:30;6.07;;;1.13;;
64339;SDS011;63709;53.258;-8.814;2023-04-15T13:59:56;3.53;;;1.10;;
64339;SDS011;63709;53.258;-8.814;2023-04-15T14:02:22;3.88;;;1.30;;
64339;SDS011;63709;53.258;-8.814;2023-04-15T14:04:48;5.32;;;1.33;;
64339;SDS011;63709;53.258;-8.814;2023-04-15T14:07:14;4.32;;;0.90;;
64339;SDS011;63709;53.258;-8.814;2023-04-15T14:12:05;2.50;;;1.20;;
64339;SDS011;63709;53.258;-8.814;2023-04-15T14:14:31;4.32;;;1.98;;
64339;SDS011;63709;53.258;-8.814;2023-04-15T14:16:58;2.58;;;1.00;;
64339;SDS011;63709;53.258;-8.814;2023-04-15T14:19:24;4.93;;;1.10;;
64339;SDS011;63709;53.258;-8.814;2023-04-15T14:21:50;3.80;;;0.95;;
64339;SDS011;63709;53.258;-8.814;2023-04-15T14:24:17;6.95;;;1.25;;
64339;SDS011;63709;53.258;-8.814;2023-04-15T14:26:43;4.32;;;0.90;;
64339;SDS011;63709;53.258;-8.814;2023-04-15T14:29:08;5.70;;;1.23;;
64339;SDS011;63709;53.258;-8.814;2023-04-15T14:31:34;5.00;;;1.52;;
64339;SDS011;63709;53.258;-8.814;2023-04-15T14:34:01;4.57;;;1.38;;
64339;SDS011;63709;53.258;-8.814;2023-04-15T14:36:27;7.15;;;1.40;;
64339;SDS011;63709;53.258;-8.814;2023-04-15T14:38:55;7.57;;;1.80;;
64339;SDS011;63709;53.258;-8.814;2023-04-15T14:41:21;6.43;;;2.15;;
64339;SDS011;63709;53.258;-8.814;2023-04-15T14:43:47;20.75;;;5.25;;
64339;SDS011;63709;53.258;-8.814;2023-04-15T14:46:12;16.95;;;5.43;;
64339;SDS011;63709;53.258;-8.814;2023-04-15T14:48:39;7.38;;;3.63;;
64339;SDS011;63709;53.258;-8.814;2023-04-15T14:51:06;4.80;;;1.42;;
64339;SDS011;63709;53.258;-8.814;2023-04-15T14:53:32;4.72;;;1.60;;
64339;SDS011;63709;53.258;-8.814;2023-04-15T14:55:57;8.63;;;3.25;;
64339;SDS011;63709;53.258;-8.814;2023-04-15T14:58:23;17.73;;;7.10;;
64339;SDS011;63709;53.258;-8.814;2023-04-15T15:00:50;14.88;;;5.22;;
64339;SDS011;63709;53.258;-8.814;2023-04-15T15:03:16;10.73;;;4.28;;